Time;durP1;ratioP1;P1;durP2;ratioP2;P2;SDS_P1;SDS_P2;PMS_P1;PMS_P2;Temp;Humidity;BMP_temperature;BMP_pressure;BME280_temperature;BME280_humidity;BME280_pressure;Samples;Min_cycle;Max_cycle;Signal;HPM_P1;HPM_P2
2021/12/27 00:00:44;;;;;;;3.42;2.67;;;;;;;-10.36;67.11;98870.72;4871487;29;20061;-58
2021/12/27 00:03:10;;;;;;;4.45;2.63;;;;;;;-10.28;68.83;98869.41;4871447;29;20053;-59
2021/12/27 00:05:36;;;;;;;3.88;2.58;;;;;;;-10.34;69.92;98858.28;4870762;29;20029;-59
2021/12/27 00:08:02;;;;;;;3.50;2.83;;;;;;;-10.49;69.19;98843.38;4869197;29;20093;-59
2021/12/27 00:10:28;;;;;;;4.28;2.58;;;;;;;-10.47;69.39;98872.69;4871235;29;20037;-59
2021/12/27 00:12:55;;;;;;;5.13;2.83;;;;;;;-10.73;67.98;98803.03;4855633;29;20033;-59
2021/12/27 00:15:21;;;;;;;3.38;2.47;;;;;;;-10.44;67.90;98879.50;4869722;29;20029;-59
2021/12/27 00:17:47;;;;;;;4.53;2.88;;;;;;;-10.58;67.88;98886.31;4870870;29;20113;-59
2021/12/27 00:20:19;;;;;;;4.82;2.80;;;;;;;-10.50;68.50;98906.69;4870775;29;20048;-59
2021/12/27 00:22:46;;;;;;;5.53;3.03;;;;;;;-10.61;69.16;98887.03;4870914;29;20033;-59
2021/12/27 00:25:13;;;;;;;5.43;3.42;;;;;;;-10.63;68.17;98886.09;4869843;29;20027;-59
2021/12/27 00:27:39;;;;;;;4.25;2.72;;;;;;;-10.50;67.48;98900.06;4870548;29;20040;-59
2021/12/27 00:30:06;;;;;;;5.47;3.15;;;;;;;-10.56;67.61;98909.75;4870672;29;20108;-59
2021/12/27 00:32:36;;;;;;;4.20;2.85;;;;;;;-10.61;68.07;98913.69;4870416;29;20089;-58
2021/12/27 00:35:06;;;;;;;5.43;3.03;;;;;;;-10.58;69.04;98913.84;4844282;29;20057;-59
2021/12/27 00:37:32;;;;;;;6.10;3.35;;;;;;;-10.49;69.31;98910.94;4871016;29;20045;-62
2021/12/27 00:39:58;;;;;;;3.92;2.92;;;;;;;-10.56;68.99;98901.41;4870442;29;20095;-60
2021/12/27 00:42:24;;;;;;;5.72;3.28;;;;;;;-10.72;68.22;98897.28;4864171;29;20061;-60
2021/12/27 00:44:49;;;;;;;3.58;2.63;;;;;;;-10.70;68.77;98901.59;4870315;29;20041;-60
2021/12/27 00:47:15;;;;;;;4.85;2.90;;;;;;;-10.44;70.12;98902.88;4870616;29;20273;-60
2021/12/27 00:49:41;;;;;;;5.10;3.22;;;;;;;-10.36;68.41;98908.25;4870225;29;20053;-60
2021/12/27 00:52:07;;;;;;;4.88;3.20;;;;;;;-10.45;69.52;98913.66;4870299;29;20032;-59
2021/12/27 00:54:33;;;;;;;4.38;2.70;;;;;;;-10.46;68.06;98903.56;4870125;29;20033;-59
2021/12/27 00:56:58;;;;;;;4.88;3.03;;;;;;;-10.33;68.95;98910.88;4869461;29;20082;-60
2021/12/27 00:59:24;;;;;;;4.00;2.65;;;;;;;-10.61;66.78;98917.03;4870605;29;20077;-59
2021/12/27 01:01:50;;;;;;;4.95;2.97;;;;;;;-10.46;67.84;98916.97;4854156;29;20334;-59
2021/12/27 01:04:15;;;;;;;5.50;3.10;;;;;;;-10.37;68.66;98920.66;4870179;29;20381;-59
2021/12/27 01:06:41;;;;;;;7.28;3.33;;;;;;;-10.28;68.59;98924.44;4870298;29;20030;-58
2021/12/27 01:09:07;;;;;;;5.10;2.88;;;;;;;-10.50;67.92;98935.09;4869206;29;20037;-59
2021/12/27 01:14:14;;;;;;;4.47;3.03;;;;;;;-10.48;67.79;98931.03;4869864;29;20053;-59
2021/12/27 01:16:41;;;;;;;4.72;2.90;;;;;;;-10.45;68.77;98937.81;4854556;29;20049;-60
2021/12/27 01:19:07;;;;;;;4.22;2.85;;;;;;;-10.63;68.40;98940.25;4871873;29;20025;-58
2021/12/27 01:21:33;;;;;;;5.53;3.13;;;;;;;-10.63;68.71;98942.75;4869482;29;20096;-59
2021/12/27 01:23:59;;;;;;;5.43;3.35;;;;;;;-10.58;69.48;98933.84;4870156;29;20029;-59
2021/12/27 01:26:27;;;;;;;4.30;2.95;;;;;;;-10.54;67.90;98939.88;4852309;29;20262;-59
2021/12/27 01:28:56;;;;;;;4.10;3.10;;;;;;;-10.66;67.48;98932.59;4869850;29;20051;-59
2021/12/27 01:31:23;;;;;;;5.30;3.13;;;;;;;-10.56;68.69;98946.44;4868537;29;20109;-59
2021/12/27 01:33:49;;;;;;;3.33;2.80;;;;;;;-10.59;69.35;98945.50;4868737;29;20310;-59
2021/12/27 01:36:15;;;;;;;4.28;3.03;;;;;;;-10.66;69.72;98968.50;4868917;29;20060;-58
2021/12/27 01:38:42;;;;;;;3.75;2.80;;;;;;;-10.61;70.02;98964.56;4869789;29;20029;-58
2021/12/27 01:41:11;;;;;;;6.45;2.92;;;;;;;-10.89;70.19;98876.44;4869418;29;20089;-58
2021/12/27 01:43:38;;;;;;;4.30;3.20;;;;;;;-10.46;70.26;98954.50;4869818;29;20030;-59
2021/12/27 01:46:10;;;;;;;7.13;3.10;;;;;;;-10.47;70.21;98965.28;4869646;29;20306;-59
2021/12/27 01:48:40;;;;;;;4.88;3.30;;;;;;;-10.56;70.13;98942.28;4854161;29;20108;-59
2021/12/27 01:51:11;;;;;;;4.03;2.83;;;;;;;-10.35;70.23;98996.69;4868592;29;20029;-59
2021/12/27 01:53:38;;;;;;;4.38;2.88;;;;;;;-10.43;70.22;98958.75;4868589;29;20030;-59
2021/12/27 01:56:06;;;;;;;5.57;3.20;;;;;;;-10.46;68.28;98969.50;4868617;29;20033;-59
2021/12/27 01:58:33;;;;;;;6.93;3.53;;;;;;;-10.45;69.78;98986.22;4869633;29;20036;-59
2021/12/27 02:01:01;;;;;;;5.22;3.63;;;;;;;-10.66;70.04;98920.09;4869906;29;20112;-60
2021/12/27 02:03:30;;;;;;;5.10;3.33;;;;;;;-10.27;68.88;98983.75;4851204;29;20021;-59
2021/12/27 02:05:56;;;;;;;4.45;2.63;;;;;;;-10.40;69.95;98983.97;4867246;29;20293;-59
2021/12/27 02:08:22;;;;;;;7.93;3.20;;;;;;;-10.44;69.16;98982.09;4868566;29;20073;-59
2021/12/27 02:10:49;;;;;;;5.55;3.17;;;;;;;-10.38;68.64;98969.88;4869573;29;20314;-60
2021/12/27 02:13:15;;;;;;;3.42;2.83;;;;;;;-10.49;69.27;98986.00;4853236;29;20045;-60
2021/12/27 02:15:41;;;;;;;4.80;3.00;;;;;;;-10.28;69.51;99007.03;4853751;29;20030;-60
2021/12/27 02:18:09;;;;;;;6.38;3.42;;;;;;;-10.24;69.77;99000.56;4869437;29;20071;-59
2021/12/27 02:20:35;;;;;;;6.20;3.33;;;;;;;-10.16;68.68;98990.91;4868597;29;20026;-60
2021/12/27 02:23:04;;;;;;;5.65;3.50;;;;;;;-10.60;67.97;98931.28;4869722;29;20040;-60
2021/12/27 02:25:32;;;;;;;5.20;3.15;;;;;;;-10.20;69.09;98999.94;4869626;29;20097;-59
2021/12/27 02:28:00;;;;;;;6.75;3.65;;;;;;;-10.33;68.52;99026.00;4838593;29;20072;-59
2021/12/27 02:30:26;;;;;;;7.35;3.13;;;;;;;-10.18;69.41;99000.00;4854341;29;20040;-60
2021/12/27 02:32:57;;;;;;;5.05;2.88;;;;;;;-10.67;69.43;98929.25;4872813;29;20210;-60
2021/12/27 02:35:28;;;;;;;4.80;3.20;;;;;;;-10.21;68.21;99007.38;4872663;29;20029;-58
2021/12/27 02:37:55;;;;;;;4.72;3.15;;;;;;;-10.38;68.02;98962.38;4872940;29;20207;-58
2021/12/27 02:40:23;;;;;;;5.20;3.38;;;;;;;-10.08;67.94;99033.06;4872479;29;20068;-58
2021/12/27 02:43:09;;;;;;;6.93;3.45;;;;;;;-10.20;68.41;99011.56;4871680;29;20030;-59
2021/12/27 02:45:47;;;;;;;3.78;2.95;;;;;;;-10.35;68.64;98987.53;4872624;29;20137;-59
2021/12/27 02:48:15;;;;;;;7.78;3.50;;;;;;;-10.24;69.71;99013.94;4871576;29;20033;-60
2021/12/27 02:50:43;;;;;;;5.43;3.17;;;;;;;-10.27;70.03;99033.81;4871052;29;20021;-60
2021/12/27 02:53:09;;;;;;;5.15;3.40;;;;;;;-10.25;69.63;99026.38;4872543;29;20025;-59
2021/12/27 02:55:36;;;;;;;6.13;3.53;;;;;;;-10.37;69.43;99024.16;4855945;29;20611;-59
2021/12/27 02:58:03;;;;;;;4.82;2.97;;;;;;;-10.36;69.81;99030.88;4872598;29;20025;-59
2021/12/27 03:00:32;;;;;;;4.32;3.00;;;;;;;-10.28;70.06;99062.09;4872380;29;20033;-59
2021/12/27 03:02:58;;;;;;;4.57;3.03;;;;;;;-10.24;69.88;99051.47;4872438;29;20052;-60
2021/12/27 03:05:27;;;;;;;5.80;3.42;;;;;;;-10.29;70.57;99045.41;4856860;29;20104;-60
2021/12/27 03:07:54;;;;;;;5.72;3.58;;;;;;;-10.14;68.87;99054.44;4871177;29;20041;-59
2021/12/27 03:10:30;;;;;;;4.65;3.35;;;;;;;-10.20;69.85;99049.13;4871122;29;20049;-60
2021/12/27 03:12:58;;;;;;;5.57;3.47;;;;;;;-10.51;70.42;99000.06;4855766;29;20037;-60
2021/12/27 03:15:24;;;;;;;6.93;3.33;;;;;;;-10.25;69.58;99058.91;4872004;29;20127;-60
2021/12/27 03:17:52;;;;;;;4.45;3.38;;;;;;;-10.55;70.57;98990.69;4872038;29;20037;-60
2021/12/27 03:20:20;;;;;;;55.83;43.53;;;;;;;-10.14;70.78;99064.47;4871008;29;20086;-59
2021/12/27 03:22:46;;;;;;;5.82;3.85;;;;;;;-10.10;70.60;99056.34;4872083;29;20026;-60
2021/12/27 03:25:15;;;;;;;5.82;3.90;;;;;;;-9.98;71.09;99081.13;4871841;29;20030;-60
2021/12/27 03:27:41;;;;;;;5.15;3.42;;;;;;;-10.17;69.03;99069.31;4871967;29;20025;-60
2021/12/27 03:30:11;;;;;;;6.35;3.33;;;;;;;-10.09;70.83;99080.56;4848188;29;20041;-60
2021/12/27 03:32:37;;;;;;;5.07;3.45;;;;;;;-10.19;68.43;99078.38;4870329;29;20038;-60
2021/12/27 03:35:13;;;;;;;5.18;3.38;;;;;;;-10.16;70.16;99111.06;4855145;29;20049;-59
2021/12/27 03:37:42;;;;;;;6.15;3.55;;;;;;;-10.65;69.26;98997.72;4870605;29;20037;-59
2021/12/27 03:40:10;;;;;;;7.30;4.10;;;;;;;-10.56;69.44;99036.50;4871385;29;20057;-59
2021/12/27 03:42:36;;;;;;;7.07;3.70;;;;;;;-10.15;70.85;99101.13;4871645;29;20105;-60
2021/12/27 03:45:03;;;;;;;5.38;3.60;;;;;;;-10.13;71.15;99094.59;4871581;29;20225;-59
2021/12/27 03:47:29;;;;;;;7.18;3.90;;;;;;;-10.11;69.80;99105.53;4871174;29;20085;-58
2021/12/27 03:49:54;;;;;;;5.30;3.83;;;;;;;-9.99;70.17;99106.94;4861736;29;20247;-60
2021/12/27 03:52:20;;;;;;;5.90;3.90;;;;;;;-10.03;69.74;99108.44;4871235;29;20040;-60
2021/12/27 03:54:46;;;;;;;4.75;3.58;;;;;;;-10.12;68.58;99100.44;4871326;29;20060;-59
2021/12/27 03:57:14;;;;;;;6.28;3.72;;;;;;;-10.13;70.16;99116.22;4855551;29;20044;-59
2021/12/27 04:02:09;;;;;;;5.35;3.38;;;;;;;-10.24;71.26;99121.56;4870214;29;20045;-59
2021/12/27 04:04:35;;;;;;;8.85;3.97;;;;;;;-10.17;69.40;99117.72;4870779;29;20374;-60
2021/12/27 04:07:01;;;;;;;6.95;3.88;;;;;;;-10.23;70.48;99117.44;4871074;29;20317;-60
2021/12/27 04:09:27;;;;;;;5.97;3.67;;;;;;;-10.19;69.59;99139.31;4857557;29;20041;-60
2021/12/27 04:11:53;;;;;;;6.15;3.75;;;;;;;-10.09;70.94;99136.53;4871116;29;20147;-59
2021/12/27 04:14:18;;;;;;;5.47;3.70;;;;;;;-10.02;70.24;99142.69;4870822;29;20326;-59
2021/12/27 04:16:44;;;;;;;6.82;4.20;;;;;;;-10.16;68.82;99121.09;4871001;29;20041;-59
2021/12/27 04:19:09;;;;;;;7.05;4.28;;;;;;;-10.00;69.65;99142.75;4870048;29;20084;-59
2021/12/27 04:21:35;;;;;;;5.15;3.53;;;;;;;-10.09;71.41;99134.00;4855091;29;20081;-59
2021/12/27 04:24:01;;;;;;;6.63;4.13;;;;;;;-9.99;69.37;99141.97;4870460;29;20092;-60
2021/12/27 04:26:26;;;;;;;7.32;4.03;;;;;;;-9.99;71.05;99147.88;4870641;29;20077;-59
2021/12/27 04:28:52;;;;;;;5.65;3.72;;;;;;;-10.07;69.93;99159.97;4870353;29;20036;-60
2021/12/27 04:31:17;;;;;;;6.00;4.00;;;;;;;-10.06;70.07;99149.19;4854948;29;20036;-60
2021/12/27 04:33:43;;;;;;;5.35;3.55;;;;;;;-9.87;69.09;99157.66;4870281;29;20029;-60
2021/12/27 04:36:09;;;;;;;6.00;3.85;;;;;;;-9.91;71.38;99160.78;4854912;29;20112;-64
2021/12/27 04:38:36;;;;;;;6.60;4.22;;;;;;;-9.84;69.31;99155.28;4870237;29;20033;-60
2021/12/27 04:41:06;;;;;;;5.32;3.60;;;;;;;-9.73;70.89;99169.22;4853928;29;20340;-60
2021/12/27 04:43:31;;;;;;;5.97;4.07;;;;;;;-9.76;69.69;99159.06;4869465;29;20069;-60
2021/12/27 04:45:58;;;;;;;6.30;4.15;;;;;;;-9.82;70.34;99155.38;4870421;29;20037;-59
2021/12/27 04:48:25;;;;;;;7.35;3.63;;;;;;;-10.23;69.33;99105.75;4870130;29;20052;-60
2021/12/27 04:50:52;;;;;;;6.40;4.13;;;;;;;-9.82;69.41;99171.25;4869792;29;20349;-60
2021/12/27 04:53:18;;;;;;;6.57;3.97;;;;;;;-9.92;69.32;99174.94;4869220;29;20029;-59
2021/12/27 04:55:45;;;;;;;6.72;4.50;;;;;;;-9.80;70.45;99177.22;4854623;29;20315;-59
2021/12/27 04:58:13;;;;;;;7.30;4.40;;;;;;;-9.74;69.79;99161.63;4853198;29;20093;-60
2021/12/27 05:00:39;;;;;;;5.35;3.60;;;;;;;-9.73;71.35;99186.75;4854643;29;20030;-59
2021/12/27 05:03:05;;;;;;;6.30;4.47;;;;;;;-9.78;70.19;99179.78;4870105;29;20321;-60
2021/12/27 05:05:32;;;;;;;6.90;3.85;;;;;;;-9.76;70.69;99189.09;4871089;29;20032;-60
2021/12/27 05:08:02;;;;;;;5.68;3.65;;;;;;;-10.11;68.81;99123.03;4870247;29;20048;-60
2021/12/27 05:10:29;;;;;;;7.75;4.40;;;;;;;-9.92;70.01;99189.97;4869870;29;20038;-59
2021/12/27 05:12:55;;;;;;;6.00;4.30;;;;;;;-10.00;71.13;99207.84;4870102;29;20104;-60
2021/12/27 05:15:21;;;;;;;6.47;4.45;;;;;;;-9.83;70.72;99208.72;4868927;29;20030;-60
2021/12/27 05:17:47;;;;;;;8.57;4.50;;;;;;;-9.77;69.89;99199.06;4853420;29;20077;-60
2021/12/27 05:20:13;;;;;;;6.68;4.20;;;;;;;-9.90;69.60;99210.09;4870057;29;20033;-59
2021/12/27 05:22:39;;;;;;;7.20;4.20;;;;;;;-10.00;68.55;99203.72;4869586;29;20029;-59
2021/12/27 05:25:06;;;;;;;6.47;3.88;;;;;;;-10.09;70.26;99209.13;4869744;29;20029;-59
2021/12/27 05:27:32;;;;;;;5.93;3.85;;;;;;;-10.06;69.18;99211.78;4853992;29;20326;-60
2021/12/27 05:29:57;;;;;;;8.15;4.38;;;;;;;-9.80;68.50;99218.94;4868668;29;20037;-60
2021/12/27 05:32:23;;;;;;;6.28;4.03;;;;;;;-9.75;69.80;99223.41;4869754;29;20026;-60
2021/12/27 05:34:49;;;;;;;7.90;3.90;;;;;;;-9.86;68.94;99211.09;4867656;29;20033;-60
2021/12/27 05:37:14;;;;;;;7.80;4.10;;;;;;;-9.97;69.21;99208.91;4869919;29;20374;-61
2021/12/27 05:39:41;;;;;;;5.90;4.03;;;;;;;-9.84;69.76;99234.59;4854064;29;20041;-61
2021/12/27 05:42:07;;;;;;;7.45;4.47;;;;;;;-9.98;70.24;99228.84;4869456;29;20368;-60
2021/12/27 05:44:32;;;;;;;5.05;3.58;;;;;;;-9.95;68.73;99249.88;4869450;29;20037;-61
2021/12/27 05:46:58;;;;;;;7.43;4.50;;;;;;;-10.06;71.22;99240.94;4869487;29;20028;-60
2021/12/27 05:49:24;;;;;;;5.65;3.70;;;;;;;-9.98;70.34;99253.88;4869218;29;20259;-61
2021/12/27 05:51:52;;;;;;;7.00;4.32;;;;;;;-9.90;70.82;99255.16;4868293;29;20056;-60
2021/12/27 05:54:20;;;;;;;6.95;4.40;;;;;;;-9.97;69.63;99268.16;4867695;29;20040;-60
2021/12/27 05:56:47;;;;;;;7.25;4.22;;;;;;;-10.14;68.93;99262.22;4868317;29;20025;-59
2021/12/27 05:59:12;;;;;;;7.18;4.20;;;;;;;-9.96;69.87;99263.22;4869415;29;20060;-59
2021/12/27 06:01:39;;;;;;;7.28;4.50;;;;;;;-9.84;69.65;99277.16;4869728;29;20025;-59
2021/12/27 06:04:05;;;;;;;8.45;4.50;;;;;;;-9.94;70.00;99271.66;4869268;29;20036;-59
2021/12/27 06:06:31;;;;;;;7.35;4.43;;;;;;;-9.98;69.82;99273.91;4870560;29;20037;-60
2021/12/27 06:08:56;;;;;;;7.72;4.35;;;;;;;-9.95;68.90;99279.09;4873216;29;20045;-60
2021/12/27 06:11:22;;;;;;;7.10;4.60;;;;;;;-9.89;70.46;99272.78;4857192;29;20204;-59
2021/12/27 06:13:48;;;;;;;7.90;4.72;;;;;;;-9.88;70.72;99291.16;4873038;29;20322;-60
2021/12/27 06:16:14;;;;;;;8.57;4.03;;;;;;;-10.04;69.51;99286.13;4872547;29;20021;-59
2021/12/27 06:18:39;;;;;;;8.15;4.50;;;;;;;-9.94;68.68;99296.69;4871256;29;20604;-60
2021/12/27 06:21:05;;;;;;;7.72;4.60;;;;;;;-9.82;70.04;99303.16;4867134;29;20341;-60
2021/12/27 06:23:31;;;;;;;6.97;4.28;;;;;;;-9.75;69.62;99297.69;4854022;29;20322;-59
2021/12/27 06:25:57;;;;;;;7.97;4.35;;;;;;;-9.80;70.27;99309.13;4869003;29;20064;-60
2021/12/27 06:28:23;;;;;;;6.45;4.53;;;;;;;-10.08;69.35;99293.44;4869846;29;20052;-59
2021/12/27 06:30:49;;;;;;;7.88;4.45;;;;;;;-9.94;69.13;99310.88;4868042;29;20064;-59
2021/12/27 06:33:15;;;;;;;8.55;4.10;;;;;;;-10.22;70.71;99311.88;4869398;29;20175;-60
2021/12/27 06:35:42;;;;;;;7.25;4.13;;;;;;;-10.11;70.83;99307.47;4867001;29;20314;-60
2021/12/27 06:38:07;;;;;;;7.97;4.63;;;;;;;-9.92;69.09;99319.31;4852585;29;20049;-59
2021/12/27 06:40:33;;;;;;;6.50;4.75;;;;;;;-9.91;69.35;99308.53;4868423;29;20302;-60
2021/12/27 06:42:59;;;;;;;7.63;4.75;;;;;;;-9.78;70.63;99320.06;4866179;29;20056;-62
2021/12/27 06:45:25;;;;;;;9.15;4.70;;;;;;;-9.78;69.44;99333.44;4866869;29;20022;-61
2021/12/27 06:47:51;;;;;;;7.05;4.22;;;;;;;-9.85;68.46;99323.88;4869665;29;20326;-60
2021/12/27 06:50:17;;;;;;;8.15;4.70;;;;;;;-9.75;69.27;99331.13;4864483;29;20042;-60
2021/12/27 06:52:43;;;;;;;8.80;4.43;;;;;;;-9.93;70.33;99331.00;4867559;29;20029;-59
2021/12/27 06:55:10;;;;;;;7.95;3.70;;;;;;;-9.87;70.08;99332.97;4866647;29;20042;-61
2021/12/27 06:57:36;;;;;;;7.40;4.55;;;;;;;-9.89;69.78;99320.34;4868306;29;20061;-59
2021/12/27 07:00:05;;;;;;;8.13;4.88;;;;;;;-9.91;69.42;99331.06;4867805;29;20022;-59
2021/12/27 07:02:30;;;;;;;6.95;4.75;;;;;;;-9.79;68.69;99320.84;4852963;29;20338;-59
2021/12/27 07:04:56;;;;;;;7.10;4.57;;;;;;;-9.65;68.53;99332.44;4867404;29;20073;-59
2021/12/27 07:07:22;;;;;;;6.93;4.35;;;;;;;-9.66;68.92;99327.34;4854545;29;20069;-60
2021/12/27 07:09:47;;;;;;;7.95;4.95;;;;;;;-9.72;68.99;99332.91;4855488;29;20218;-60
2021/12/27 07:12:13;;;;;;;7.90;5.13;;;;;;;-9.66;69.62;99337.38;4851693;29;20033;-61
2021/12/27 07:14:39;;;;;;;8.35;4.50;;;;;;;-9.82;69.98;99330.69;4863494;29;20018;-60
2021/12/27 07:17:05;;;;;;;7.65;4.53;;;;;;;-9.96;69.16;99323.31;4868503;29;20121;-59
2021/12/27 07:19:31;;;;;;;7.57;4.40;;;;;;;-9.98;68.37;99332.38;4852074;29;20089;-59
2021/12/27 07:21:56;;;;;;;7.30;4.43;;;;;;;-10.06;68.53;99326.06;4868349;29;20053;-61
2021/12/27 07:24:22;;;;;;;6.53;3.85;;;;;;;-9.94;70.13;99339.28;4865220;29;20300;-58
2021/12/27 07:26:48;;;;;;;8.13;4.03;;;;;;;-10.13;69.00;99334.91;4852947;29;20041;-60
2021/12/27 07:29:14;;;;;;;6.22;4.35;;;;;;;-9.85;69.82;99361.44;4866238;29;20214;-59
2021/12/27 07:31:39;;;;;;;6.13;3.58;;;;;;;-10.22;67.40;99339.41;4863755;29;21189;-59
2021/12/27 07:34:05;;;;;;;6.28;4.80;;;;;;;-9.98;68.77;99349.91;4863718;29;20042;-60
2021/12/27 07:36:30;;;;;;;5.95;4.35;;;;;;;-9.85;68.78;99353.94;4864840;29;20247;-60
2021/12/27 07:38:57;;;;;;;6.95;4.45;;;;;;;-9.76;70.13;99358.56;4866650;29;20089;-60
2021/12/27 07:41:23;;;;;;;6.50;4.25;;;;;;;-9.71;69.16;99360.53;4866431;29;20087;-59
2021/12/27 07:43:48;;;;;;;5.53;4.13;;;;;;;-9.93;69.32;99355.16;4851442;29;20029;-59
2021/12/27 07:46:14;;;;;;;6.93;4.75;;;;;;;-9.88;67.81;99364.63;4869433;29;20298;-59
2021/12/27 07:48:39;;;;;;;7.18;4.20;;;;;;;-9.76;68.37;99371.97;4867244;29;20036;-60
2021/12/27 07:51:05;;;;;;;8.07;4.22;;;;;;;-9.75;67.65;99380.34;4865809;29;20026;-61
2021/12/27 07:53:31;;;;;;;8.50;4.57;;;;;;;-9.83;67.80;99379.94;4867180;29;20057;-60
2021/12/27 07:55:56;;;;;;;8.02;4.60;;;;;;;-9.66;69.31;99383.38;4869169;29;20086;-61
2021/12/27 07:58:22;;;;;;;8.10;4.30;;;;;;;-9.98;66.86;99379.94;4854328;29;20314;-59
2021/12/27 08:00:50;;;;;;;7.38;4.18;;;;;;;-10.36;68.08;99321.16;4865804;29;20029;-60
2021/12/27 08:03:18;;;;;;;6.88;4.47;;;;;;;-10.35;68.01;99317.88;4868437;29;20029;-59
2021/12/27 08:05:44;;;;;;;6.97;3.72;;;;;;;-9.73;67.83;99392.19;4865346;29;20049;-60
2021/12/27 08:08:10;;;;;;;6.57;4.03;;;;;;;-9.81;66.74;99397.56;4865053;29;20232;-60
2021/12/27 08:10:36;;;;;;;7.80;4.22;;;;;;;-9.76;67.04;99398.66;4865172;29;20330;-59
2021/12/27 08:13:02;;;;;;;8.10;4.45;;;;;;;-9.82;67.65;99409.19;4867489;29;20085;-59
2021/12/27 08:15:28;;;;;;;7.35;4.78;;;;;;;-9.78;66.46;99398.56;4855067;29;20244;-58
2021/12/27 08:17:53;;;;;;;7.57;4.45;;;;;;;-9.77;68.03;99404.47;4866367;29;20088;-58
2021/12/27 08:20:19;;;;;;;7.97;4.40;;;;;;;-9.73;67.14;99411.38;4864789;29;20259;-59
2021/12/27 08:22:45;;;;;;;6.18;4.20;;;;;;;-9.75;67.02;99396.25;4864143;29;20037;-59
2021/12/27 08:25:11;;;;;;;10.88;5.35;;;;;;;-9.53;66.31;99409.94;4853125;29;20297;-60
2021/12/27 08:27:39;;;;;;;6.20;3.83;;;;;;;-9.63;66.28;99431.13;4853536;29;20029;-59
2021/12/27 08:30:06;;;;;;;6.25;4.32;;;;;;;-9.64;67.23;99416.88;4870252;29;20025;-60
2021/12/27 08:32:32;;;;;;;7.05;4.03;;;;;;;-9.63;67.47;99401.06;4870562;29;20104;-60
2021/12/27 08:35:01;;;;;;;7.43;4.10;;;;;;;-9.74;67.62;99409.63;4870283;29;20034;-60
2021/12/27 08:37:28;;;;;;;5.68;4.20;;;;;;;-9.58;66.31;99412.19;4869496;29;20044;-59
2021/12/27 08:39:54;;;;;;;6.18;4.13;;;;;;;-9.56;67.46;99414.78;4870247;29;20030;-60
2021/12/27 08:42:19;;;;;;;5.85;4.10;;;;;;;-9.67;68.13;99416.69;4854790;29;20101;-59
2021/12/27 08:44:45;;;;;;;7.38;4.38;;;;;;;-9.54;66.76;99398.19;4854676;29;20077;-59
2021/12/27 08:47:12;;;;;;;9.63;4.15;;;;;;;-9.34;66.10;99401.75;4870308;29;20041;-58
2021/12/27 08:49:38;;;;;;;6.70;4.07;;;;;;;-9.46;65.19;99398.56;4854540;29;20116;-60
2021/12/27 08:52:04;;;;;;;6.22;4.18;;;;;;;-9.48;65.71;99396.00;4869534;29;20041;-60
2021/12/27 08:54:29;;;;;;;8.13;4.80;;;;;;;-9.26;65.27;99402.13;4870555;29;20210;-60
2021/12/27 08:56:56;;;;;;;6.10;4.03;;;;;;;-9.07;66.58;99397.31;4870915;29;20046;-59
2021/12/27 08:59:22;;;;;;;6.63;4.45;;;;;;;-8.93;65.75;99395.53;4865828;29;20032;-59
2021/12/27 09:01:47;;;;;;;8.20;3.70;;;;;;;-8.75;65.10;99399.75;4865525;29;20037;-59
2021/12/27 09:04:13;;;;;;;6.25;4.35;;;;;;;-8.98;64.76;99396.91;4867271;29;20246;-59
2021/12/27 09:06:39;;;;;;;7.68;3.80;;;;;;;-8.96;66.10;99399.50;4865321;29;20033;-60
2021/12/27 09:09:05;;;;;;;7.32;4.35;;;;;;;-8.80;64.74;99407.03;4866884;29;20037;-59
2021/12/27 09:11:31;;;;;;;6.35;4.20;;;;;;;-8.86;64.02;99395.06;4838279;29;20033;-59
2021/12/27 09:13:57;;;;;;;7.07;4.20;;;;;;;-8.48;64.25;99399.41;4853434;29;20255;-59
2021/12/27 09:16:23;;;;;;;7.50;4.03;;;;;;;-8.38;65.15;99397.41;4867034;29;20032;-59
2021/12/27 09:18:48;;;;;;;8.15;5.30;;;;;;;-8.29;63.84;99407.03;4862634;29;20021;-60
2021/12/27 09:21:14;;;;;;;8.68;4.72;;;;;;;-7.98;63.04;99413.53;4870340;29;20029;-60
2021/12/27 09:23:40;;;;;;;7.72;4.90;;;;;;;-7.99;63.95;99405.13;4870069;29;20040;-60
2021/12/27 09:26:06;;;;;;;5.90;4.25;;;;;;;-8.13;62.76;99415.31;4869909;29;20040;-59
2021/12/27 09:28:31;;;;;;;7.25;4.75;;;;;;;-8.62;64.52;99414.66;4869026;29;20449;-59
2021/12/27 09:30:58;;;;;;;9.30;5.07;;;;;;;-8.67;64.46;99428.59;4869196;29;20053;-59
2021/12/27 09:33:24;;;;;;;6.97;4.55;;;;;;;-8.66;64.76;99422.81;4870241;29;20049;-60
2021/12/27 09:35:50;;;;;;;7.85;4.80;;;;;;;-8.81;64.49;99412.00;4870360;29;20093;-60
2021/12/27 09:38:16;;;;;;;7.45;4.43;;;;;;;-8.55;64.35;99425.84;4853657;29;20034;-59
2021/12/27 09:40:42;;;;;;;7.13;4.95;;;;;;;-8.63;65.10;99437.16;4863063;29;20052;-59
2021/12/27 09:43:09;;;;;;;9.25;4.75;;;;;;;-8.73;64.66;99433.31;4853988;29;20054;-60
2021/12/27 09:45:35;;;;;;;9.00;4.50;;;;;;;-8.65;64.98;99416.97;4865258;29;20317;-58
2021/12/27 09:48:01;;;;;;;9.23;4.22;;;;;;;-8.67;65.31;99414.41;4866998;29;20032;-59
2021/12/27 09:50:33;;;;;;;8.15;5.05;;;;;;;-8.70;64.90;99438.50;4869681;29;20073;-59
2021/12/27 09:53:01;;;;;;;12.15;4.93;;;;;;;-8.68;65.29;99424.38;4868815;29;20131;-61
2021/12/27 09:55:27;;;;;;;7.65;4.97;;;;;;;-8.59;65.01;99424.84;4869621;29;20045;-61
2021/12/27 09:57:54;;;;;;;6.57;4.57;;;;;;;-8.73;65.75;99410.75;4863651;29;20342;-59
2021/12/27 10:00:21;;;;;;;7.35;4.45;;;;;;;-8.86;66.85;99422.66;4861467;29;20057;-62
2021/12/27 10:02:52;;;;;;;7.28;4.68;;;;;;;-9.10;64.81;99356.19;4869093;29;20346;-59
2021/12/27 10:05:22;;;;;;;7.43;4.70;;;;;;;-8.83;66.85;99426.97;4869890;29;20053;-60
2021/12/27 10:07:50;;;;;;;9.52;5.43;;;;;;;-8.93;66.94;99414.75;4869903;29;20062;-63
2021/12/27 10:10:17;;;;;;;8.20;5.28;;;;;;;-8.64;65.96;99431.25;4869853;29;20029;-61
2021/12/27 10:12:43;;;;;;;8.82;5.03;;;;;;;-8.48;65.61;99425.38;4870040;29;20029;-62
2021/12/27 10:15:11;;;;;;;9.18;4.82;;;;;;;-8.90;66.87;99345.50;4869896;29;20374;-60
2021/12/27 10:17:38;;;;;;;7.75;5.28;;;;;;;-8.46;66.32;99415.41;4869446;29;20036;-60
2021/12/27 10:20:31;;;;;;;7.00;4.57;;;;;;;-8.56;66.28;99422.47;4869592;29;20057;-60
2021/12/27 10:22:57;;;;;;;;;;;;;;;-8.46;66.06;99432.97;4867724;29;20046;-60
2021/12/27 10:25:26;;;;;;;7.38;4.80;;;;;;;-8.82;65.92;99355.06;4869846;29;20040;-60
2021/12/27 10:27:55;;;;;;;9.13;4.85;;;;;;;-8.40;66.73;99428.25;4868802;29;20044;-61
2021/12/27 10:30:24;;;;;;;8.27;5.32;;;;;;;-8.64;66.25;99362.66;4869778;29;20029;-58
2021/12/27 10:33:07;;;;;;;6.85;4.22;;;;;;;-8.18;66.01;99436.06;4853202;29;20104;-60
2021/12/27 10:35:38;;;;;;;7.88;5.15;;;;;;;-8.31;66.55;99436.22;4865204;29;20108;-60
2021/12/27 10:38:16;;;;;;;7.10;4.90;;;;;;;-8.75;67.42;99367.13;4865451;29;20313;-60
2021/12/27 10:40:52;;;;;;;6.10;4.25;;;;;;;-8.46;67.12;99428.84;4865392;29;20052;-59
2021/12/27 10:43:31;;;;;;;8.15;4.57;;;;;;;-8.20;66.91;99446.81;4865994;29;20160;-59
2021/12/27 10:46:00;;;;;;;8.48;4.78;;;;;;;-8.81;66.67;99371.84;4871325;29;20032;-61
2021/12/27 10:48:35;;;;;;;7.88;5.00;;;;;;;-8.42;66.85;99425.66;4869620;29;20033;-59
2021/12/27 10:51:01;;;;;;;9.15;5.63;;;;;;;-8.20;66.44;99440.13;4869758;29;20025;-59
2021/12/27 10:53:27;;;;;;;10.07;5.53;;;;;;;-8.15;66.95;99433.69;4872996;29;20025;-61
2021/12/27 10:55:54;;;;;;;10.30;5.00;;;;;;;-8.10;67.45;99441.44;4870193;29;20104;-60
2021/12/27 10:58:26;;;;;;;9.65;5.30;;;;;;;-8.13;67.09;99436.28;4864898;29;20093;-59
2021/12/27 11:00:58;;;;;;;7.63;5.10;;;;;;;-8.11;66.35;99441.38;4868784;29;20057;-60
2021/12/27 11:03:37;;;;;;;8.43;5.82;;;;;;;-8.00;66.52;99445.25;4853834;29;20211;-60
2021/12/27 11:06:04;;;;;;;9.35;6.00;;;;;;;-8.00;66.72;99461.19;4858377;29;20061;-59
2021/12/27 11:08:32;;;;;;;8.43;5.13;;;;;;;-8.36;66.69;99380.75;4868189;29;20030;-60
2021/12/27 11:10:58;;;;;;;8.50;5.38;;;;;;;-7.98;67.30;99441.16;4872596;29;20027;-61
2021/12/27 11:13:26;;;;;;;8.77;5.45;;;;;;;-7.96;67.29;99444.63;4869340;29;20029;-59
2021/12/27 11:15:52;;;;;;;8.20;5.22;;;;;;;-8.19;67.04;99434.31;4872431;29;20036;-60
2021/12/27 11:18:17;;;;;;;9.13;5.47;;;;;;;-8.08;67.45;99444.03;4873730;29;20026;-59
2021/12/27 11:20:47;;;;;;;8.52;4.88;;;;;;;-8.30;67.58;99405.31;4855711;29;20030;-60
2021/12/27 11:23:14;;;;;;;8.38;5.13;;;;;;;-8.11;67.18;99431.31;4871553;29;20029;-61
2021/12/27 11:25:42;;;;;;;8.07;5.15;;;;;;;-8.07;68.07;99435.72;4865598;29;20041;-61
2021/12/27 11:28:28;;;;;;;8.23;4.90;;;;;;;-7.96;67.66;99447.16;4867980;29;20071;-59
2021/12/27 11:30:54;;;;;;;9.23;4.70;;;;;;;-7.92;67.75;99450.66;4866339;29;20037;-62
2021/12/27 11:33:22;;;;;;;7.05;4.70;;;;;;;-7.94;67.49;99455.59;4856175;29;20060;-59